sensor_id;sensor_type;location;lat;lon;timestamp;temperature;humidity
52189;DHT22;38162;45.926;13.608;2023-03-01T00:03:28;5.80;61.40
52189;DHT22;38162;45.926;13.608;2023-03-01T00:05:54;5.80;61.90
52189;DHT22;38162;45.926;13.608;2023-03-01T00:08:19;5.90;62.10
52189;DHT22;38162;45.926;13.608;2023-03-01T00:10:45;5.90;62.10
52189;DHT22;38162;45.926;13.608;2023-03-01T00:13:11;5.90;62.20
52189;DHT22;38162;45.926;13.608;2023-03-01T00:15:40;5.90;62.30
52189;DHT22;38162;45.926;13.608;2023-03-01T00:18:07;5.90;62.20
52189;DHT22;38162;45.926;13.608;2023-03-01T00:20:34;5.90;62.50
52189;DHT22;38162;45.926;13.608;2023-03-01T00:22:59;5.90;62.10
52189;DHT22;38162;45.926;13.608;2023-03-01T00:25:25;6.00;62.60
52189;DHT22;38162;45.926;13.608;2023-03-01T00:27:51;5.90;62.20
52189;DHT22;38162;45.926;13.608;2023-03-01T00:30:17;5.90;61.90
52189;DHT22;38162;45.926;13.608;2023-03-01T00:32:42;5.90;61.80
52189;DHT22;38162;45.926;13.608;2023-03-01T00:35:08;5.80;62.00
52189;DHT22;38162;45.926;13.608;2023-03-01T00:37:34;5.80;61.70
52189;DHT22;38162;45.926;13.608;2023-03-01T00:39:59;5.80;62.00
52189;DHT22;38162;45.926;13.608;2023-03-01T00:42:25;5.70;61.80
52189;DHT22;38162;45.926;13.608;2023-03-01T00:44:51;5.70;62.40
52189;DHT22;38162;45.926;13.608;2023-03-01T00:47:16;5.70;62.60
52189;DHT22;38162;45.926;13.608;2023-03-01T00:49:42;5.70;62.70
52189;DHT22;38162;45.926;13.608;2023-03-01T00:52:08;5.70;62.90
52189;DHT22;38162;45.926;13.608;2023-03-01T00:54:33;5.70;62.40
52189;DHT22;38162;45.926;13.608;2023-03-01T00:56:59;5.80;62.40
52189;DHT22;38162;45.926;13.608;2023-03-01T00:59:24;5.80;62.50
52189;DHT22;38162;45.926;13.608;2023-03-01T01:01:50;5.80;62.50
52189;DHT22;38162;45.926;13.608;2023-03-01T01:04:16;5.90;63.00
52189;DHT22;38162;45.926;13.608;2023-03-01T01:06:43;5.80;62.80
52189;DHT22;38162;45.926;13.608;2023-03-01T01:09:11;5.90;63.00
52189;DHT22;38162;45.926;13.608;2023-03-01T01:11:49;5.80;62.90
52189;DHT22;38162;45.926;13.608;2023-03-01T01:14:16;5.80;62.80
52189;DHT22;38162;45.926;13.608;2023-03-01T01:16:43;5.80;63.10
52189;DHT22;38162;45.926;13.608;2023-03-01T01:19:10;5.80;62.90
52189;DHT22;38162;45.926;13.608;2023-03-01T01:21:36;5.80;63.30
52189;DHT22;38162;45.926;13.608;2023-03-01T01:24:03;5.80;62.80
52189;DHT22;38162;45.926;13.608;2023-03-01T01:26:31;5.70;62.90
52189;DHT22;38162;45.926;13.608;2023-03-01T01:28:58;5.70;63.40
52189;DHT22;38162;45.926;13.608;2023-03-01T01:31:24;5.60;63.50
52189;DHT22;38162;45.926;13.608;2023-03-01T01:33:51;5.60;63.40
52189;DHT22;38162;45.926;13.608;2023-03-01T01:36:17;5.60;63.70
52189;DHT22;38162;45.926;13.608;2023-03-01T01:38:43;5.60;63.70
52189;DHT22;38162;45.926;13.608;2023-03-01T01:41:10;5.60;63.50
52189;DHT22;38162;45.926;13.608;2023-03-01T01:43:42;5.60;63.80
52189;DHT22;38162;45.926;13.608;2023-03-01T01:48:49;5.60;63.60
52189;DHT22;38162;45.926;13.608;2023-03-01T01:51:21;5.60;63.60
52189;DHT22;38162;45.926;13.608;2023-03-01T01:53:55;5.50;63.90
52189;DHT22;38162;45.926;13.608;2023-03-01T01:56:23;5.50;63.80
52189;DHT22;38162;45.926;13.608;2023-03-01T01:58:49;5.50;64.10
52189;DHT22;38162;45.926;13.608;2023-03-01T02:01:16;5.40;64.50
52189;DHT22;38162;45.926;13.608;2023-03-01T02:03:43;5.50;64.40
52189;DHT22;38162;45.926;13.608;2023-03-01T02:06:49;5.50;64.30
52189;DHT22;38162;45.926;13.608;2023-03-01T02:09:14;5.50;64.70
52189;DHT22;38162;45.926;13.608;2023-03-01T02:11:41;5.40;64.70
52189;DHT22;38162;45.926;13.608;2023-03-01T02:14:07;5.40;64.30
52189;DHT22;38162;45.926;13.608;2023-03-01T02:16:33;5.40;64.70
52189;DHT22;38162;45.926;13.608;2023-03-01T02:18:59;5.40;64.80
52189;DHT22;38162;45.926;13.608;2023-03-01T02:21:38;5.40;64.30
52189;DHT22;38162;45.926;13.608;2023-03-01T02:24:32;5.40;63.80
52189;DHT22;38162;45.926;13.608;2023-03-01T02:27:00;5.40;64.20
52189;DHT22;38162;45.926;13.608;2023-03-01T02:29:27;5.40;64.60
52189;DHT22;38162;45.926;13.608;2023-03-01T02:31:55;5.40;64.60
52189;DHT22;38162;45.926;13.608;2023-03-01T02:34:24;5.40;64.30
52189;DHT22;38162;45.926;13.608;2023-03-01T02:37:00;5.40;64.00
52189;DHT22;38162;45.926;13.608;2023-03-01T02:39:31;5.30;64.40
52189;DHT22;38162;45.926;13.608;2023-03-01T02:41:57;5.30;64.80
52189;DHT22;38162;45.926;13.608;2023-03-01T02:44:24;5.30;65.00
52189;DHT22;38162;45.926;13.608;2023-03-01T02:46:52;5.30;65.00
52189;DHT22;38162;45.926;13.608;2023-03-01T02:49:36;5.30;64.90
52189;DHT22;38162;45.926;13.608;2023-03-01T02:55:03;5.30;65.10
52189;DHT22;38162;45.926;13.608;2023-03-01T02:57:31;5.30;64.50
52189;DHT22;38162;45.926;13.608;2023-03-01T03:00:06;5.30;64.20
52189;DHT22;38162;45.926;13.608;2023-03-01T03:02:33;5.30;64.60
52189;DHT22;38162;45.926;13.608;2023-03-01T03:05:11;5.30;64.40
52189;DHT22;38162;45.926;13.608;2023-03-01T03:07:39;5.30;64.00
52189;DHT22;38162;45.926;13.608;2023-03-01T03:10:08;5.30;64.20
52189;DHT22;38162;45.926;13.608;2023-03-01T03:12:34;5.40;64.30
52189;DHT22;38162;45.926;13.608;2023-03-01T03:15:00;5.40;64.30
52189;DHT22;38162;45.926;13.608;2023-03-01T03:17:26;5.40;64.40
52189;DHT22;38162;45.926;13.608;2023-03-01T03:19:51;5.40;64.30
52189;DHT22;38162;45.926;13.608;2023-03-01T03:22:17;5.40;64.40
52189;DHT22;38162;45.926;13.608;2023-03-01T03:24:43;5.50;64.50
52189;DHT22;38162;45.926;13.608;2023-03-01T03:27:08;5.50;64.00
52189;DHT22;38162;45.926;13.608;2023-03-01T03:29:34;5.50;64.30
52189;DHT22;38162;45.926;13.608;2023-03-01T03:32:00;5.50;64.00
52189;DHT22;38162;45.926;13.608;2023-03-01T03:34:25;5.50;64.40
52189;DHT22;38162;45.926;13.608;2023-03-01T03:36:55;5.50;64.30
52189;DHT22;38162;45.926;13.608;2023-03-01T03:39:26;5.50;64.50
52189;DHT22;38162;45.926;13.608;2023-03-01T03:41:53;5.50;64.20
52189;DHT22;38162;45.926;13.608;2023-03-01T03:44:19;5.50;64.60
52189;DHT22;38162;45.926;13.608;2023-03-01T03:46:44;5.50;64.40
52189;DHT22;38162;45.926;13.608;2023-03-01T03:49:10;5.50;64.10
52189;DHT22;38162;45.926;13.608;2023-03-01T03:51:36;5.50;64.30
52189;DHT22;38162;45.926;13.608;2023-03-01T03:54:02;5.50;64.40
52189;DHT22;38162;45.926;13.608;2023-03-01T03:56:27;5.50;64.80
52189;DHT22;38162;45.926;13.608;2023-03-01T03:58:53;5.50;64.90
52189;DHT22;38162;45.926;13.608;2023-03-01T04:01:19;5.50;64.80
52189;DHT22;38162;45.926;13.608;2023-03-01T04:03:44;5.50;64.60
52189;DHT22;38162;45.926;13.608;2023-03-01T04:06:14;5.50;64.40
52189;DHT22;38162;45.926;13.608;2023-03-01T04:08:40;5.50;64.50
52189;DHT22;38162;45.926;13.608;2023-03-01T04:11:06;5.50;64.40
52189;DHT22;38162;45.926;13.608;2023-03-01T04:13:51;5.50;64.60
52189;DHT22;38162;45.926;13.608;2023-03-01T04:16:18;5.50;65.10
52189;DHT22;38162;45.926;13.608;2023-03-01T04:18:44;5.60;65.50
52189;DHT22;38162;45.926;13.608;2023-03-01T04:21:10;5.60;65.50
52189;DHT22;38162;45.926;13.608;2023-03-01T04:23:37;5.50;65.50
52189;DHT22;38162;45.926;13.608;2023-03-01T04:26:04;5.60;65.60
52189;DHT22;38162;45.926;13.608;2023-03-01T04:28:32;5.60;65.50
52189;DHT22;38162;45.926;13.608;2023-03-01T04:31:06;5.60;65.50
52189;DHT22;38162;45.926;13.608;2023-03-01T04:33:39;5.70;65.30
52189;DHT22;38162;45.926;13.608;2023-03-01T04:36:06;5.70;65.10
52189;DHT22;38162;45.926;13.608;2023-03-01T04:38:34;5.70;65.00
52189;DHT22;38162;45.926;13.608;2023-03-01T04:41:01;5.80;65.00
52189;DHT22;38162;45.926;13.608;2023-03-01T04:43:28;5.80;65.00
52189;DHT22;38162;45.926;13.608;2023-03-01T04:45:54;5.80;65.10
52189;DHT22;38162;45.926;13.608;2023-03-01T04:48:20;5.90;64.50
52189;DHT22;38162;45.926;13.608;2023-03-01T04:50:45;5.90;64.30
52189;DHT22;38162;45.926;13.608;2023-03-01T04:53:11;6.00;64.50
52189;DHT22;38162;45.926;13.608;2023-03-01T04:55:37;6.00;64.60
52189;DHT22;38162;45.926;13.608;2023-03-01T04:58:02;6.00;64.80
52189;DHT22;38162;45.926;13.608;2023-03-01T05:00:28;6.00;64.90
52189;DHT22;38162;45.926;13.608;2023-03-01T05:03:00;6.00;64.80
52189;DHT22;38162;45.926;13.608;2023-03-01T05:05:27;6.00;64.70
52189;DHT22;38162;45.926;13.608;2023-03-01T05:07:58;6.10;64.40
52189;DHT22;38162;45.926;13.608;2023-03-01T05:10:25;6.10;64.30
52189;DHT22;38162;45.926;13.608;2023-03-01T05:12:51;6.10;64.20
52189;DHT22;38162;45.926;13.608;2023-03-01T05:15:18;6.10;64.10
52189;DHT22;38162;45.926;13.608;2023-03-01T05:17:44;6.20;64.10
52189;DHT22;38162;45.926;13.608;2023-03-01T05:20:11;6.20;64.00
52189;DHT22;38162;45.926;13.608;2023-03-01T05:22:37;6.20;64.10
52189;DHT22;38162;45.926;13.608;2023-03-01T05:25:03;6.20;64.20
52189;DHT22;38162;45.926;13.608;2023-03-01T05:27:29;6.20;64.30
52189;DHT22;38162;45.926;13.608;2023-03-01T05:29:56;6.20;64.40
52189;DHT22;38162;45.926;13.608;2023-03-01T05:32:21;6.20;64.50
52189;DHT22;38162;45.926;13.608;2023-03-01T05:34:47;6.30;64.40
52189;DHT22;38162;45.926;13.608;2023-03-01T05:37:13;6.30;64.40
52189;DHT22;38162;45.926;13.608;2023-03-01T05:39:39;6.30;64.30
52189;DHT22;38162;45.926;13.608;2023-03-01T05:42:05;6.30;64.30
52189;DHT22;38162;45.926;13.608;2023-03-01T05:44:31;6.30;64.00
52189;DHT22;38162;45.926;13.608;2023-03-01T05:46:57;6.30;63.80
52189;DHT22;38162;45.926;13.608;2023-03-01T05:49:22;6.40;64.00
52189;DHT22;38162;45.926;13.608;2023-03-01T05:51:52;6.40;63.70
52189;DHT22;38162;45.926;13.608;2023-03-01T05:54:20;6.40;63.70
52189;DHT22;38162;45.926;13.608;2023-03-01T05:56:46;6.40;63.60
52189;DHT22;38162;45.926;13.608;2023-03-01T05:59:12;6.40;63.60
52189;DHT22;38162;45.926;13.608;2023-03-01T06:01:39;6.40;63.60
52189;DHT22;38162;45.926;13.608;2023-03-01T06:04:04;6.40;63.20
52189;DHT22;38162;45.926;13.608;2023-03-01T06:06:34;6.40;63.00
52189;DHT22;38162;45.926;13.608;2023-03-01T06:09:00;6.40;62.80
52189;DHT22;38162;45.926;13.608;2023-03-01T06:11:25;6.40;62.80
52189;DHT22;38162;45.926;13.608;2023-03-01T06:13:51;6.40;62.50
52189;DHT22;38162;45.926;13.608;2023-03-01T06:16:17;6.40;62.50
52189;DHT22;38162;45.926;13.608;2023-03-01T06:18:42;6.40;62.50
52189;DHT22;38162;45.926;13.608;2023-03-01T06:21:08;6.40;62.50
52189;DHT22;38162;45.926;13.608;2023-03-01T06:23:34;6.40;62.60
52189;DHT22;38162;45.926;13.608;2023-03-01T06:26:00;6.40;62.70
52189;DHT22;38162;45.926;13.608;2023-03-01T06:28:30;6.50;62.80
52189;DHT22;38162;45.926;13.608;2023-03-01T06:30:55;6.50;62.90
52189;DHT22;38162;45.926;13.608;2023-03-01T06:33:21;6.50;63.00
52189;DHT22;38162;45.926;13.608;2023-03-01T06:35:49;6.50;63.00
52189;DHT22;38162;45.926;13.608;2023-03-01T06:38:15;6.60;62.50
52189;DHT22;38162;45.926;13.608;2023-03-01T06:40:43;6.60;62.40
52189;DHT22;38162;45.926;13.608;2023-03-01T06:43:09;6.60;62.80
52189;DHT22;38162;45.926;13.608;2023-03-01T06:45:34;6.70;62.10
52189;DHT22;38162;45.926;13.608;2023-03-01T06:48:07;6.70;62.20
52189;DHT22;38162;45.926;13.608;2023-03-01T06:50:34;6.70;62.10
52189;DHT22;38162;45.926;13.608;2023-03-01T06:53:00;6.70;62.20
52189;DHT22;38162;45.926;13.608;2023-03-01T06:55:25;6.70;62.20
52189;DHT22;38162;45.926;13.608;2023-03-01T06:57:56;6.70;62.10
52189;DHT22;38162;45.926;13.608;2023-03-01T07:00:23;6.70;62.00
52189;DHT22;38162;45.926;13.608;2023-03-01T07:02:49;6.70;62.50
52189;DHT22;38162;45.926;13.608;2023-03-01T07:05:15;6.70;61.80
52189;DHT22;38162;45.926;13.608;2023-03-01T07:07:41;6.70;61.60
52189;DHT22;38162;45.926;13.608;2023-03-01T07:10:07;6.70;61.50
52189;DHT22;38162;45.926;13.608;2023-03-01T07:12:33;6.70;61.30
52189;DHT22;38162;45.926;13.608;2023-03-01T07:14:59;6.70;61.50
52189;DHT22;38162;45.926;13.608;2023-03-01T07:17:24;6.70;62.00
52189;DHT22;38162;45.926;13.608;2023-03-01T07:19:50;6.80;61.30
52189;DHT22;38162;45.926;13.608;2023-03-01T07:22:16;6.80;61.40
52189;DHT22;38162;45.926;13.608;2023-03-01T07:24:42;6.80;61.60
52189;DHT22;38162;45.926;13.608;2023-03-01T07:27:08;6.80;61.60
52189;DHT22;38162;45.926;13.608;2023-03-01T07:29:33;6.80;61.50
52189;DHT22;38162;45.926;13.608;2023-03-01T07:32:04;6.80;61.90
52189;DHT22;38162;45.926;13.608;2023-03-01T07:34:30;6.90;61.90
52189;DHT22;38162;45.926;13.608;2023-03-01T07:36:55;6.90;61.80
52189;DHT22;38162;45.926;13.608;2023-03-01T07:39:21;6.90;61.70
52189;DHT22;38162;45.926;13.608;2023-03-01T07:41:49;6.90;61.80
52189;DHT22;38162;45.926;13.608;2023-03-01T07:44:15;7.00;61.90
52189;DHT22;38162;45.926;13.608;2023-03-01T07:46:41;7.00;62.30
52189;DHT22;38162;45.926;13.608;2023-03-01T07:49:07;7.10;61.10
52189;DHT22;38162;45.926;13.608;2023-03-01T07:51:33;7.00;60.60
52189;DHT22;38162;45.926;13.608;2023-03-01T07:53:59;7.10;60.90
52189;DHT22;38162;45.926;13.608;2023-03-01T07:56:24;7.10;60.70
52189;DHT22;38162;45.926;13.608;2023-03-01T07:58:50;7.10;61.00
52189;DHT22;38162;45.926;13.608;2023-03-01T08:01:18;7.20;61.50
52189;DHT22;38162;45.926;13.608;2023-03-01T08:03:44;7.20;61.30
52189;DHT22;38162;45.926;13.608;2023-03-01T08:06:11;7.30;61.20
52189;DHT22;38162;45.926;13.608;2023-03-01T08:08:37;7.30;60.90
52189;DHT22;38162;45.926;13.608;2023-03-01T08:11:05;7.30;61.00
52189;DHT22;38162;45.926;13.608;2023-03-01T08:13:32;7.40;60.40
52189;DHT22;38162;45.926;13.608;2023-03-01T08:16:05;7.40;60.50
52189;DHT22;38162;45.926;13.608;2023-03-01T08:18:31;7.40;60.50
52189;DHT22;38162;45.926;13.608;2023-03-01T08:21:05;7.40;60.60
52189;DHT22;38162;45.926;13.608;2023-03-01T08:23:31;7.50;60.50
52189;DHT22;38162;45.926;13.608;2023-03-01T08:26:08;7.50;60.60
52189;DHT22;38162;45.926;13.608;2023-03-01T08:28:34;7.50;61.00
52189;DHT22;38162;45.926;13.608;2023-03-01T08:31:00;7.50;61.30
52189;DHT22;38162;45.926;13.608;2023-03-01T08:33:26;7.50;61.60
52189;DHT22;38162;45.926;13.608;2023-03-01T08:35:52;7.60;61.60
52189;DHT22;38162;45.926;13.608;2023-03-01T08:38:17;7.70;61.50
52189;DHT22;38162;45.926;13.608;2023-03-01T08:40:43;7.70;61.40
52189;DHT22;38162;45.926;13.608;2023-03-01T08:43:08;7.70;61.40
52189;DHT22;38162;45.926;13.608;2023-03-01T08:45:34;7.80;60.80
52189;DHT22;38162;45.926;13.608;2023-03-01T08:48:00;7.80;60.70
52189;DHT22;38162;45.926;13.608;2023-03-01T08:50:25;7.80;60.90
52189;DHT22;38162;45.926;13.608;2023-03-01T08:52:51;7.90;60.90
52189;DHT22;38162;45.926;13.608;2023-03-01T08:55:17;8.00;60.80
52189;DHT22;38162;45.926;13.608;2023-03-01T08:57:43;8.00;60.70
52189;DHT22;38162;45.926;13.608;2023-03-01T09:00:10;8.10;60.80
52189;DHT22;38162;45.926;13.608;2023-03-01T09:02:40;8.20;60.70
52189;DHT22;38162;45.926;13.608;2023-03-01T09:05:06;8.20;60.60
52189;DHT22;38162;45.926;13.608;2023-03-01T09:07:31;8.30;60.50
52189;DHT22;38162;45.926;13.608;2023-03-01T09:09:57;8.30;60.10
52189;DHT22;38162;45.926;13.608;2023-03-01T09:12:23;8.40;60.30
52189;DHT22;38162;45.926;13.608;2023-03-01T09:14:50;8.40;60.10
52189;DHT22;38162;45.926;13.608;2023-03-01T09:17:16;8.40;59.90
52189;DHT22;38162;45.926;13.608;2023-03-01T09:19:42;8.40;59.70
52189;DHT22;38162;45.926;13.608;2023-03-01T09:22:07;8.50;58.60
52189;DHT22;38162;45.926;13.608;2023-03-01T09:24:33;8.50;58.60
52189;DHT22;38162;45.926;13.608;2023-03-01T09:26:59;8.50;58.60
52189;DHT22;38162;45.926;13.608;2023-03-01T09:29:24;8.40;58.40
52189;DHT22;38162;45.926;13.608;2023-03-01T09:31:51;8.40;58.70
52189;DHT22;38162;45.926;13.608;2023-03-01T09:34:20;8.40;58.80
52189;DHT22;38162;45.926;13.608;2023-03-01T09:36:49;8.40;59.10
52189;DHT22;38162;45.926;13.608;2023-03-01T09:39:15;8.40;59.40
52189;DHT22;38162;45.926;13.608;2023-03-01T09:42:00;8.40;59.50
52189;DHT22;38162;45.926;13.608;2023-03-01T09:47:03;8.40;59.30
52189;DHT22;38162;45.926;13.608;2023-03-01T09:49:34;8.40;59.10
52189;DHT22;38162;45.926;13.608;2023-03-01T09:52:19;8.40;58.90
52189;DHT22;38162;45.926;13.608;2023-03-01T09:54:48;8.40;59.30
52189;DHT22;38162;45.926;13.608;2023-03-01T09:57:26;8.50;59.60
52189;DHT22;38162;45.926;13.608;2023-03-01T10:00:10;8.50;59.40
52189;DHT22;38162;45.926;13.608;2023-03-01T10:03:06;8.50;59.40
52189;DHT22;38162;45.926;13.608;2023-03-01T10:05:43;8.60;59.20
52189;DHT22;38162;45.926;13.608;2023-03-01T10:08:40;8.50;59.60
52189;DHT22;38162;45.926;13.608;2023-03-01T10:11:22;8.60;59.20
52189;DHT22;38162;45.926;13.608;2023-03-01T10:13:55;8.70;58.60
52189;DHT22;38162;45.926;13.608;2023-03-01T10:16:46;8.70;58.40
52189;DHT22;38162;45.926;13.608;2023-03-01T10:19:33;8.70;58.10
52189;DHT22;38162;45.926;13.608;2023-03-01T10:22:11;8.60;58.30
52189;DHT22;38162;45.926;13.608;2023-03-01T10:24:38;8.50;58.60
52189;DHT22;38162;45.926;13.608;2023-03-01T10:27:10;8.50;58.90
52189;DHT22;38162;45.926;13.608;2023-03-01T10:32:33;8.50;59.20
52189;DHT22;38162;45.926;13.608;2023-03-01T10:34:59;8.50;59.10
52189;DHT22;38162;45.926;13.608;2023-03-01T10:37:26;8.50;59.00
52189;DHT22;38162;45.926;13.608;2023-03-01T10:42:48;8.50;59.10
52189;DHT22;38162;45.926;13.608;2023-03-01T10:48:14;8.60;59.00
52189;DHT22;38162;45.926;13.608;2023-03-01T10:50:49;8.60;59.20
52189;DHT22;38162;45.926;13.608;2023-03-01T10:53:34;8.60;60.00
52189;DHT22;38162;45.926;13.608;2023-03-01T10:56:18;8.60;60.10
52189;DHT22;38162;45.926;13.608;2023-03-01T10:58:57;8.60;60.20
52189;DHT22;38162;45.926;13.608;2023-03-01T11:06:29;8.70;59.70
52189;DHT22;38162;45.926;13.608;2023-03-01T11:08:54;8.70;59.70
52189;DHT22;38162;45.926;13.608;2023-03-01T11:11:34;8.70;59.50
52189;DHT22;38162;45.926;13.608;2023-03-01T11:14:20;8.70;59.50
52189;DHT22;38162;45.926;13.608;2023-03-01T11:16:48;8.70;60.00
52189;DHT22;38162;45.926;13.608;2023-03-01T11:19:18;8.70;60.00
52189;DHT22;38162;45.926;13.608;2023-03-01T11:22:03;8.70;60.10
52189;DHT22;38162;45.926;13.608;2023-03-01T11:25:04;8.80;60.10
52189;DHT22;38162;45.926;13.608;2023-03-01T11:27:31;8.80;60.10
52189;DHT22;38162;45.926;13.608;2023-03-01T11:35:36;8.80;60.20
52189;DHT22;38162;45.926;13.608;2023-03-01T11:41:01;8.80;60.30
52189;DHT22;38162;45.926;13.608;2023-03-01T11:43:54;8.70;60.20
52189;DHT22;38162;45.926;13.608;2023-03-01T11:49:22;8.70;60.60
52189;DHT22;38162;45.926;13.608;2023-03-01T11:54:45;8.70;60.70
52189;DHT22;38162;45.926;13.608;2023-03-01T12:03:09;8.80;60.40
52189;DHT22;38162;45.926;13.608;2023-03-01T12:06:37;8.70;60.60
52189;DHT22;38162;45.926;13.608;2023-03-01T12:22:29;8.70;61.20
52189;DHT22;38162;45.926;13.608;2023-03-01T12:52:47;8.80;60.90
52189;DHT22;38162;45.926;13.608;2023-03-01T12:55:36;8.90;61.00
52189;DHT22;38162;45.926;13.608;2023-03-01T13:00:36;8.90;61.40
52189;DHT22;38162;45.926;13.608;2023-03-01T13:08:39;9.00;61.20
52189;DHT22;38162;45.926;13.608;2023-03-01T13:11:20;9.00;60.90
52189;DHT22;38162;45.926;13.608;2023-03-01T13:13:46;9.00;60.90
52189;DHT22;38162;45.926;13.608;2023-03-01T13:19:27;9.00;60.70
52189;DHT22;38162;45.926;13.608;2023-03-01T13:22:38;9.00;61.10
52189;DHT22;38162;45.926;13.608;2023-03-01T13:25:17;9.00;61.20
52189;DHT22;38162;45.926;13.608;2023-03-01T13:27:45;9.00;61.10
52189;DHT22;38162;45.926;13.608;2023-03-01T13:38:48;9.00;61.20
52189;DHT22;38162;45.926;13.608;2023-03-01T13:44:31;9.00;61.40
52189;DHT22;38162;45.926;13.608;2023-03-01T13:47:02;9.00;61.10
52189;DHT22;38162;45.926;13.608;2023-03-01T13:49:53;9.00;61.30
52189;DHT22;38162;45.926;13.608;2023-03-01T13:52:53;9.00;62.00
52189;DHT22;38162;45.926;13.608;2023-03-01T13:55:45;9.00;61.40
52189;DHT22;38162;45.926;13.608;2023-03-01T13:58:26;9.00;61.50
52189;DHT22;38162;45.926;13.608;2023-03-01T14:00:59;9.00;61.10
52189;DHT22;38162;45.926;13.608;2023-03-01T14:03:25;9.00;60.80
52189;DHT22;38162;45.926;13.608;2023-03-01T14:08:28;9.00;60.30
52189;DHT22;38162;45.926;13.608;2023-03-01T14:11:20;9.00;60.50
52189;DHT22;38162;45.926;13.608;2023-03-01T14:16:50;8.90;61.40
52189;DHT22;38162;45.926;13.608;2023-03-01T14:19:24;8.90;61.10
52189;DHT22;38162;45.926;13.608;2023-03-01T14:24:36;8.90;61.10
52189;DHT22;38162;45.926;13.608;2023-03-01T14:27:03;8.90;61.10
52189;DHT22;38162;45.926;13.608;2023-03-01T14:29:36;8.90;61.10
52189;DHT22;38162;45.926;13.608;2023-03-01T14:34:45;8.90;61.00
52189;DHT22;38162;45.926;13.608;2023-03-01T14:37:29;8.90;61.10
52189;DHT22;38162;45.926;13.608;2023-03-01T14:39:57;8.90;61.40
52189;DHT22;38162;45.926;13.608;2023-03-01T14:42:25;8.90;61.20
52189;DHT22;38162;45.926;13.608;2023-03-01T14:44:54;8.90;61.10
52189;DHT22;38162;45.926;13.608;2023-03-01T14:50:00;8.90;61.40
52189;DHT22;38162;45.926;13.608;2023-03-01T14:52:46;8.90;61.20
52189;DHT22;38162;45.926;13.608;2023-03-01T14:55:20;8.90;61.20
52189;DHT22;38162;45.926;13.608;2023-03-01T14:57:50;8.90;61.00
52189;DHT22;38162;45.926;13.608;2023-03-01T15:00:27;8.80;61.60
52189;DHT22;38162;45.926;13.608;2023-03-01T15:02:55;8.80;61.40
52189;DHT22;38162;45.926;13.608;2023-03-01T15:05:31;8.80;61.70
52189;DHT22;38162;45.926;13.608;2023-03-01T15:07:58;8.70;61.80
52189;DHT22;38162;45.926;13.608;2023-03-01T15:10:30;8.70;61.80
52189;DHT22;38162;45.926;13.608;2023-03-01T15:13:13;8.70;61.70
52189;DHT22;38162;45.926;13.608;2023-03-01T15:15:44;8.80;61.70
52189;DHT22;38162;45.926;13.608;2023-03-01T15:18:30;8.70;61.60
52189;DHT22;38162;45.926;13.608;2023-03-01T15:21:26;8.80;61.80
52189;DHT22;38162;45.926;13.608;2023-03-01T15:26:39;8.70;61.80
52189;DHT22;38162;45.926;13.608;2023-03-01T15:29:17;8.70;62.30
52189;DHT22;38162;45.926;13.608;2023-03-01T15:31:55;8.60;62.60
52189;DHT22;38162;45.926;13.608;2023-03-01T15:34:25;8.60;62.80
52189;DHT22;38162;45.926;13.608;2023-03-01T15:36:53;8.60;63.00
52189;DHT22;38162;45.926;13.608;2023-03-01T15:39:40;8.60;63.10
52189;DHT22;38162;45.926;13.608;2023-03-01T15:42:12;8.60;63.30
52189;DHT22;38162;45.926;13.608;2023-03-01T15:44:40;8.60;63.40
52189;DHT22;38162;45.926;13.608;2023-03-01T15:47:30;8.60;63.40
52189;DHT22;38162;45.926;13.608;2023-03-01T15:49:57;8.60;64.20
52189;DHT22;38162;45.926;13.608;2023-03-01T15:52:35;8.70;63.30
52189;DHT22;38162;45.926;13.608;2023-03-01T15:55:12;8.70;62.90
52189;DHT22;38162;45.926;13.608;2023-03-01T15:57:39;8.70;62.60
52189;DHT22;38162;45.926;13.608;2023-03-01T16:00:08;8.70;63.40
52189;DHT22;38162;45.926;13.608;2023-03-01T16:02:37;8.70;62.90
52189;DHT22;38162;45.926;13.608;2023-03-01T16:05:03;8.70;62.90
52189;DHT22;38162;45.926;13.608;2023-03-01T16:07:29;8.70;62.90
52189;DHT22;38162;45.926;13.608;2023-03-01T16:09:57;8.70;63.20
52189;DHT22;38162;45.926;13.608;2023-03-01T16:12:23;8.70;63.90
52189;DHT22;38162;45.926;13.608;2023-03-01T16:14:50;8.60;63.70
52189;DHT22;38162;45.926;13.608;2023-03-01T16:17:15;8.60;63.50
52189;DHT22;38162;45.926;13.608;2023-03-01T16:19:41;8.70;63.50
52189;DHT22;38162;45.926;13.608;2023-03-01T16:22:09;8.70;63.30
52189;DHT22;38162;45.926;13.608;2023-03-01T16:24:35;8.70;63.20
52189;DHT22;38162;45.926;13.608;2023-03-01T16:27:01;8.70;63.10
52189;DHT22;38162;45.926;13.608;2023-03-01T16:29:27;8.70;63.00
52189;DHT22;38162;45.926;13.608;2023-03-01T16:31:54;8.70;63.00
52189;DHT22;38162;45.926;13.608;2023-03-01T16:34:20;8.70;62.90
52189;DHT22;38162;45.926;13.608;2023-03-01T16:36:47;8.70;62.80
52189;DHT22;38162;45.926;13.608;2023-03-01T16:39:13;8.70;62.90
52189;DHT22;38162;45.926;13.608;2023-03-01T16:41:39;8.70;62.90
52189;DHT22;38162;45.926;13.608;2023-03-01T16:44:04;8.70;63.00
52189;DHT22;38162;45.926;13.608;2023-03-01T16:46:30;8.70;63.30
52189;DHT22;38162;45.926;13.608;2023-03-01T16:48:56;8.70;63.30
52189;DHT22;38162;45.926;13.608;2023-03-01T16:51:23;8.60;63.50
52189;DHT22;38162;45.926;13.608;2023-03-01T16:53:49;8.60;63.90
52189;DHT22;38162;45.926;13.608;2023-03-01T16:56:16;8.60;64.40
52189;DHT22;38162;45.926;13.608;2023-03-01T16:58:42;8.60;64.60
52189;DHT22;38162;45.926;13.608;2023-03-01T17:01:10;8.60;65.00
52189;DHT22;38162;45.926;13.608;2023-03-01T17:03:37;8.50;65.30
52189;DHT22;38162;45.926;13.608;2023-03-01T17:06:04;8.50;65.50
52189;DHT22;38162;45.926;13.608;2023-03-01T17:08:31;8.50;65.70
52189;DHT22;38162;45.926;13.608;2023-03-01T17:11:12;8.50;65.80
52189;DHT22;38162;45.926;13.608;2023-03-01T17:13:38;8.50;65.90
52189;DHT22;38162;45.926;13.608;2023-03-01T17:16:06;8.50;65.80
52189;DHT22;38162;45.926;13.608;2023-03-01T17:18:32;8.50;65.60
52189;DHT22;38162;45.926;13.608;2023-03-01T17:20:58;8.50;65.90
52189;DHT22;38162;45.926;13.608;2023-03-01T17:23:24;8.50;65.90
52189;DHT22;38162;45.926;13.608;2023-03-01T17:25:50;8.50;65.60
52189;DHT22;38162;45.926;13.608;2023-03-01T17:28:15;8.50;65.70
52189;DHT22;38162;45.926;13.608;2023-03-01T17:30:43;8.50;65.70
52189;DHT22;38162;45.926;13.608;2023-03-01T17:33:10;8.50;65.70
52189;DHT22;38162;45.926;13.608;2023-03-01T17:35:36;8.60;65.70
52189;DHT22;38162;45.926;13.608;2023-03-01T17:38:06;8.50;65.70
52189;DHT22;38162;45.926;13.608;2023-03-01T17:40:32;8.50;65.90
52189;DHT22;38162;45.926;13.608;2023-03-01T17:42:58;8.50;66.10
52189;DHT22;38162;45.926;13.608;2023-03-01T17:45:24;8.50;66.10
52189;DHT22;38162;45.926;13.608;2023-03-01T17:47:49;8.50;66.20
52189;DHT22;38162;45.926;13.608;2023-03-01T17:50:15;8.40;66.40